Time;durP1;ratioP1;P1;durP2;ratioP2;P2;SDS_P1;SDS_P2;PMS_P1;PMS_P2;Temp;Humidity;BMP_temperature;BMP_pressure;BME280_temperature;BME280_humidity;BME280_pressure;Samples;Min_cycle;Max_cycle;Signal;HPM_P1;HPM_P2
2023/04/16 00:00:30;;;;;;;;;;;8.10;99.90;;;;;;4992876;28;20024;-65
2023/04/16 00:02:56;;;;;;;;;;;8.20;99.90;;;;;;4992776;28;19929;-65
2023/04/16 00:05:21;;;;;;;;;;;8.10;99.90;;;;;;4992455;28;19922;-67
2023/04/16 00:07:47;;;;;;;;;;;8.10;99.90;;;;;;4992737;28;19972;-66
2023/04/16 00:10:13;;;;;;;;;;;8.10;99.90;;;;;;4992354;28;19948;-65
2023/04/16 00:12:38;;;;;;;;;;;8.10;99.90;;;;;;4991493;28;19933;-65
2023/04/16 00:15:04;;;;;;;;;;;8.20;99.90;;;;;;4991793;28;20004;-75
2023/04/16 00:17:29;;;;;;;;;;;8.20;99.90;;;;;;4975628;28;19926;-64
2023/04/16 00:19:55;;;;;;;;;;;8.10;99.90;;;;;;4992641;28;19930;-64
2023/04/16 00:22:21;;;;;;;;;;;8.10;99.90;;;;;;4992183;28;19926;-67
2023/04/16 00:24:46;;;;;;;;;;;8.10;99.90;;;;;;4974995;28;19926;-64
2023/04/16 00:27:12;;;;;;;;;;;8.10;99.90;;;;;;4990577;28;19933;-64
2023/04/16 00:29:37;;;;;;;;;;;8.10;99.90;;;;;;4992590;28;19926;-65
2023/04/16 00:32:03;;;;;;;;;;;8.10;99.90;;;;;;4991304;28;19932;-74
2023/04/16 00:34:29;;;;;;;;;;;8.20;99.90;;;;;;4991849;28;19980;-65
2023/04/16 00:36:54;;;;;;;;;;;8.10;99.90;;;;;;4992160;28;19926;-66
2023/04/16 00:39:20;;;;;;;;;;;8.20;99.90;;;;;;4991126;28;19932;-66
2023/04/16 00:41:45;;;;;;;;;;;8.10;99.90;;;;;;4991346;28;19992;-65
2023/04/16 00:44:11;;;;;;;;;;;8.10;99.90;;;;;;4992034;28;20021;-66
2023/04/16 00:46:37;;;;;;;;;;;8.00;99.90;;;;;;4991468;28;19933;-68
2023/04/16 00:49:03;;;;;;;;;;;8.10;99.90;;;;;;4992374;28;20367;-65
2023/04/16 00:51:29;;;;;;;;;;;8.00;99.90;;;;;;4991847;28;19926;-67
2023/04/16 00:53:56;;;;;;;;;;;8.00;99.90;;;;;;4993635;28;19926;-65
2023/04/16 00:56:23;;;;;;;;;;;8.00;99.90;;;;;;4994075;28;19933;-73
2023/04/16 00:58:49;;;;;;;;;;;8.00;99.90;;;;;;4996183;28;19926;-65
2023/04/16 01:01:14;;;;;;;;;;;8.10;99.90;;;;;;4995642;28;19925;-65
2023/04/16 01:03:44;;;;;;;;;;;7.90;99.90;;;;;;4996034;28;20291;-65
2023/04/16 01:06:10;;;;;;;;;;;8.00;99.90;;;;;;4995611;28;20367;-73
2023/04/16 01:08:36;;;;;;;;;;;8.00;99.90;;;;;;4995775;28;20303;-65
2023/04/16 01:11:02;;;;;;;;;;;8.00;99.90;;;;;;4995957;28;19932;-65
2023/04/16 01:13:27;;;;;;;;;;;8.00;99.90;;;;;;4995037;28;20310;-65
2023/04/16 01:15:53;;;;;;;;;;;8.00;99.90;;;;;;4995866;28;19930;-65
2023/04/16 01:18:20;;;;;;;;;;;8.10;99.90;;;;;;4995113;28;20264;-64
2023/04/16 01:20:46;;;;;;;;;;;8.00;99.90;;;;;;4995604;28;20033;-64
2023/04/16 01:23:11;;;;;;;;;;;8.00;99.90;;;;;;4994325;28;19969;-74
2023/04/16 01:25:37;;;;;;;;;;;8.00;99.90;;;;;;4995788;28;19925;-65
2023/04/16 01:28:03;;;;;;;;;;;8.00;99.90;;;;;;4995447;28;19930;-64
2023/04/16 01:30:29;;;;;;;;;;;8.10;99.90;;;;;;4994014;28;19926;-64
2023/04/16 01:32:55;;;;;;;;;;;8.10;99.90;;;;;;4994524;28;19969;-65
2023/04/16 01:35:21;;;;;;;;;;;8.10;99.90;;;;;;4994639;28;19925;-64
2023/04/16 01:37:48;;;;;;;;;;;8.00;99.90;;;;;;4995328;28;19932;-65
2023/04/16 01:40:14;;;;;;;;;;;8.00;99.90;;;;;;4995000;28;19933;-74
2023/04/16 01:42:39;;;;;;;;;;;8.00;99.90;;;;;;4994017;28;19926;-64
2023/04/16 01:45:05;;;;;;;;;;;8.00;99.90;;;;;;4995117;28;20013;-67
2023/04/16 01:47:31;;;;;;;;;;;8.00;99.90;;;;;;4994788;28;19926;-65
2023/04/16 01:49:57;;;;;;;;;;;8.00;99.90;;;;;;4993843;28;20339;-66
2023/04/16 01:52:23;;;;;;;;;;;8.00;99.90;;;;;;4994405;28;19926;-65
2023/04/16 01:54:48;;;;;;;;;;;8.00;99.90;;;;;;4977848;28;19926;-65
2023/04/16 01:57:14;;;;;;;;;;;8.10;99.90;;;;;;4995089;28;20499;-66
2023/04/16 01:59:40;;;;;;;;;;;8.10;99.90;;;;;;4977048;28;19933;-65
2023/04/16 02:02:09;;;;;;;;;;;8.00;99.90;;;;;;4994627;28;19930;-67
2023/04/16 02:04:38;;;;;;;;;;;8.00;99.90;;;;;;4993814;28;20157;-64
2023/04/16 02:07:04;;;;;;;;;;;8.00;99.90;;;;;;4994196;28;19926;-64
2023/04/16 02:09:30;;;;;;;;;;;8.00;99.90;;;;;;4994254;28;19926;-66
2023/04/16 02:11:56;;;;;;;;;;;8.10;99.90;;;;;;4994745;28;19934;-64
2023/04/16 02:14:24;;;;;;;;;;;8.10;99.90;;;;;;4994235;28;19926;-64
2023/04/16 02:16:52;;;;;;;;;;;8.10;99.90;;;;;;4976827;28;19980;-65
2023/04/16 02:19:18;;;;;;;;;;;8.10;99.90;;;;;;4994482;28;19933;-75
2023/04/16 02:21:44;;;;;;;;;;;8.20;99.90;;;;;;4994137;28;19980;-65
2023/04/16 02:24:09;;;;;;;;;;;8.10;99.90;;;;;;4994477;28;20391;-65
2023/04/16 02:26:35;;;;;;;;;;;8.10;99.90;;;;;;4994211;28;20025;-68
2023/04/16 02:29:00;;;;;;;;;;;8.10;99.90;;;;;;4994164;28;19925;-65
2023/04/16 02:31:27;;;;;;;;;;;8.20;99.90;;;;;;4993924;28;20005;-65
2023/04/16 02:33:53;;;;;;;;;;;8.10;99.90;;;;;;4992851;28;20395;-66
2023/04/16 02:36:19;;;;;;;;;;;8.10;99.90;;;;;;4994351;28;19925;-67
2023/04/16 02:38:45;;;;;;;;;;;8.20;99.90;;;;;;4992660;28;20023;-65
2023/04/16 02:41:11;;;;;;;;;;;8.20;99.90;;;;;;4993808;28;20493;-65
2023/04/16 02:43:36;;;;;;;;;;;8.10;99.90;;;;;;4993491;28;20399;-65
2023/04/16 02:46:02;;;;;;;;;;;8.20;99.90;;;;;;4993032;28;19925;-65
2023/04/16 02:48:27;;;;;;;;;;;8.20;99.90;;;;;;4993650;28;20017;-66
2023/04/16 02:50:53;;;;;;;;;;;8.10;99.90;;;;;;4994058;28;20081;-66
2023/04/16 02:53:19;;;;;;;;;;;8.10;99.90;;;;;;4993211;28;19933;-65
2023/04/16 02:55:53;;;;;;;;;;;8.10;99.90;;;;;;4992270;28;19933;-65
2023/04/16 02:58:23;;;;;;;;;;;8.20;99.90;;;;;;4993687;28;20398;-65
2023/04/16 03:00:49;;;;;;;;;;;8.10;99.90;;;;;;4993624;28;19926;-67
2023/04/16 03:03:15;;;;;;;;;;;8.20;99.90;;;;;;4992535;28;19946;-65
2023/04/16 03:05:40;;;;;;;;;;;8.10;99.90;;;;;;4993239;28;20050;-65
2023/04/16 03:08:06;;;;;;;;;;;8.10;99.90;;;;;;4993444;28;19974;-64
2023/04/16 03:10:32;;;;;;;;;;;8.00;99.90;;;;;;4991933;28;19932;-66
2023/04/16 03:12:57;;;;;;;;;;;8.00;99.90;;;;;;4976247;28;19948;-66
2023/04/16 03:15:24;;;;;;;;;;;8.10;99.90;;;;;;4993276;28;19933;-64
2023/04/16 03:17:49;;;;;;;;;;;8.00;99.90;;;;;;4991558;28;20291;-64
2023/04/16 03:20:16;;;;;;;;;;;8.00;99.90;;;;;;4993225;28;19930;-64
2023/04/16 03:22:41;;;;;;;;;;;8.00;99.90;;;;;;4992990;28;19980;-66
2023/04/16 03:25:07;;;;;;;;;;;8.00;99.90;;;;;;4993439;28;19925;-65
2023/04/16 03:27:33;;;;;;;;;;;8.10;99.90;;;;;;4992657;28;19926;-65
2023/04/16 03:29:59;;;;;;;;;;;8.00;99.90;;;;;;4993298;28;19933;-65
2023/04/16 03:32:24;;;;;;;;;;;8.10;99.90;;;;;;4993273;28;19933;-65
2023/04/16 03:34:50;;;;;;;;;;;7.90;99.90;;;;;;4992815;28;20410;-65
2023/04/16 03:37:16;;;;;;;;;;;8.00;99.90;;;;;;4992274;28;20376;-65
2023/04/16 03:39:41;;;;;;;;;;;8.00;99.90;;;;;;4975594;28;19933;-65
2023/04/16 03:42:07;;;;;;;;;;;8.00;99.90;;;;;;4992948;28;19933;-65
2023/04/16 03:44:33;;;;;;;;;;;8.00;99.90;;;;;;4992567;28;19937;-65
2023/04/16 03:46:58;;;;;;;;;;;8.00;99.90;;;;;;4991866;28;19925;-67
2023/04/16 03:49:24;;;;;;;;;;;8.00;99.90;;;;;;4992697;28;19973;-65
2023/04/16 03:51:50;;;;;;;;;;;7.90;99.90;;;;;;4992403;28;19932;-65
2023/04/16 03:54:15;;;;;;;;;;;7.90;99.90;;;;;;4992896;28;19930;-65
2023/04/16 03:56:41;;;;;;;;;;;7.90;99.90;;;;;;4992463;28;19932;-64
2023/04/16 03:59:07;;;;;;;;;;;7.90;99.90;;;;;;4992024;28;20294;-68
2023/04/16 04:01:33;;;;;;;;;;;7.90;99.90;;;;;;4992550;28;19926;-74
2023/04/16 04:03:58;;;;;;;;;;;7.90;99.90;;;;;;4992228;28;19925;-65
2023/04/16 04:06:24;;;;;;;;;;;7.90;99.90;;;;;;4992786;28;19933;-65
2023/04/16 04:08:50;;;;;;;;;;;8.00;99.90;;;;;;4990838;28;20088;-65
2023/04/16 04:11:15;;;;;;;;;;;7.90;99.90;;;;;;4992926;28;19930;-65
2023/04/16 04:13:41;;;;;;;;;;;7.90;99.90;;;;;;4992401;28;20012;-66
2023/04/16 04:16:07;;;;;;;;;;;7.90;99.90;;;;;;4992610;28;19933;-65
2023/04/16 04:18:32;;;;;;;;;;;7.80;99.90;;;;;;4991481;28;20375;-65
2023/04/16 04:20:58;;;;;;;;;;;7.90;99.90;;;;;;4992299;28;19926;-64
2023/04/16 04:23:23;;;;;;;;;;;7.90;99.90;;;;;;4992572;28;19925;-65
2023/04/16 04:25:49;;;;;;;;;;;7.90;99.90;;;;;;4990899;28;19925;-64
2023/04/16 04:28:15;;;;;;;;;;;7.80;99.90;;;;;;4992738;28;19974;-68
2023/04/16 04:30:40;;;;;;;;;;;7.90;99.90;;;;;;4995794;28;20012;-69
2023/04/16 04:33:06;;;;;;;;;;;7.90;99.90;;;;;;4995340;28;19992;-64
2023/04/16 04:35:32;;;;;;;;;;;7.90;99.90;;;;;;4995316;28;20008;-63
2023/04/16 04:37:57;;;;;;;;;;;7.90;99.90;;;;;;4995897;28;19925;-64
2023/04/16 04:40:23;;;;;;;;;;;7.90;99.90;;;;;;4995369;28;20425;-64
2023/04/16 04:42:49;;;;;;;;;;;7.90;99.90;;;;;;4978261;28;20021;-66
2023/04/16 04:45:14;;;;;;;;;;;7.90;99.90;;;;;;4995131;28;19937;-65
2023/04/16 04:47:40;;;;;;;;;;;7.90;99.90;;;;;;4995530;28;20363;-66
2023/04/16 04:50:06;;;;;;;;;;;7.90;99.90;;;;;;4995027;28;19984;-65
2023/04/16 04:52:31;;;;;;;;;;;7.90;99.90;;;;;;4996131;28;19925;-65
2023/04/16 04:54:57;;;;;;;;;;;7.90;99.90;;;;;;4994669;28;20525;-64
2023/04/16 04:57:22;;;;;;;;;;;7.90;99.90;;;;;;4995119;28;19926;-65
2023/04/16 04:59:48;;;;;;;;;;;7.90;99.90;;;;;;4995471;28;20015;-66
2023/04/16 05:02:14;;;;;;;;;;;7.90;99.90;;;;;;4996041;28;19926;-66
2023/04/16 05:04:39;;;;;;;;;;;7.90;99.90;;;;;;4994160;28;19973;-73
2023/04/16 05:07:06;;;;;;;;;;;7.90;99.90;;;;;;4995698;28;20015;-65
2023/04/16 05:09:31;;;;;;;;;;;7.90;99.90;;;;;;4994350;28;20043;-65
2023/04/16 05:11:57;;;;;;;;;;;8.00;99.90;;;;;;4995335;28;20364;-67
2023/04/16 05:14:22;;;;;;;;;;;7.90;99.90;;;;;;4995799;28;19926;-67
2023/04/16 05:16:48;;;;;;;;;;;7.90;99.90;;;;;;4961763;28;19941;-64
2023/04/16 05:19:15;;;;;;;;;;;7.90;99.90;;;;;;4994465;28;19952;-64
2023/04/16 05:21:40;;;;;;;;;;;8.00;99.90;;;;;;4995418;28;19926;-66
2023/04/16 05:24:06;;;;;;;;;;;7.90;99.90;;;;;;4994689;28;20425;-65
2023/04/16 05:26:31;;;;;;;;;;;7.90;99.90;;;;;;4978158;28;19938;-64
2023/04/16 05:28:57;;;;;;;;;;;7.80;99.90;;;;;;4994644;28;19926;-64
2023/04/16 05:31:22;;;;;;;;;;;7.90;99.90;;;;;;4995357;28;19933;-64
2023/04/16 05:33:48;;;;;;;;;;;8.00;99.90;;;;;;4994688;28;20394;-64
2023/04/16 05:36:13;;;;;;;;;;;7.90;99.90;;;;;;4995066;28;19932;-64
2023/04/16 05:38:39;;;;;;;;;;;7.90;99.90;;;;;;4994370;28;19948;-64
2023/04/16 05:41:05;;;;;;;;;;;7.90;99.90;;;;;;4994355;28;19925;-69
2023/04/16 05:43:30;;;;;;;;;;;7.90;99.90;;;;;;4993857;28;20290;-64
2023/04/16 05:45:56;;;;;;;;;;;7.90;99.90;;;;;;4977499;28;20541;-64
2023/04/16 05:48:22;;;;;;;;;;;7.90;99.90;;;;;;4993664;28;20327;-64
2023/04/16 05:50:48;;;;;;;;;;;8.00;99.90;;;;;;4994481;28;20016;-67
2023/04/16 05:53:13;;;;;;;;;;;8.00;99.90;;;;;;4993625;28;19926;-66
2023/04/16 05:55:39;;;;;;;;;;;8.00;99.90;;;;;;4994869;28;19926;-65
2023/04/16 05:58:04;;;;;;;;;;;8.00;99.90;;;;;;4994442;28;20304;-65
2023/04/16 06:00:31;;;;;;;;;;;8.00;99.90;;;;;;4994490;28;19984;-64
2023/04/16 06:02:56;;;;;;;;;;;8.10;99.90;;;;;;4993497;28;19926;-64
2023/04/16 06:05:22;;;;;;;;;;;8.20;99.90;;;;;;4993884;28;19976;-65
2023/04/16 06:07:48;;;;;;;;;;;8.20;99.90;;;;;;4993202;28;19926;-72
2023/04/16 06:10:14;;;;;;;;;;;8.30;99.90;;;;;;4994339;28;19926;-66
2023/04/16 06:12:39;;;;;;;;;;;8.30;99.90;;;;;;4993421;28;19932;-65
2023/04/16 06:15:05;;;;;;;;;;;8.30;99.90;;;;;;4993136;28;19937;-65
2023/04/16 06:17:31;;;;;;;;;;;8.40;99.90;;;;;;4994381;28;19974;-64
2023/04/16 06:19:56;;;;;;;;;;;8.40;99.90;;;;;;4994169;28;19926;-69
2023/04/16 06:22:22;;;;;;;;;;;8.40;99.90;;;;;;4993574;28;19926;-65
2023/04/16 06:24:48;;;;;;;;;;;8.50;99.90;;;;;;4994605;28;19926;-65
2023/04/16 06:27:14;;;;;;;;;;;8.40;99.90;;;;;;4994055;28;19957;-65
2023/04/16 06:29:40;;;;;;;;;;;8.50;99.90;;;;;;4994363;28;20032;-65
2023/04/16 06:32:06;;;;;;;;;;;8.60;99.90;;;;;;4993864;28;20049;-66
2023/04/16 06:34:31;;;;;;;;;;;8.60;99.90;;;;;;4977299;28;19930;-65
2023/04/16 06:36:57;;;;;;;;;;;8.70;99.90;;;;;;4993832;28;20294;-66
2023/04/16 06:39:22;;;;;;;;;;;8.70;99.90;;;;;;4994099;28;19926;-70
2023/04/16 06:41:48;;;;;;;;;;;8.80;99.90;;;;;;4993111;28;19926;-65
2023/04/16 06:44:14;;;;;;;;;;;8.90;99.90;;;;;;4992447;28;19926;-69
2023/04/16 06:46:39;;;;;;;;;;;8.90;99.90;;;;;;4994100;28;19925;-66
2023/04/16 06:49:06;;;;;;;;;;;9.00;99.90;;;;;;4993351;28;20455;-67
2023/04/16 06:51:31;;;;;;;;;;;9.00;99.90;;;;;;4993208;28;19948;-65
2023/04/16 06:53:57;;;;;;;;;;;9.00;99.90;;;;;;4993731;28;19926;-69
2023/04/16 06:56:23;;;;;;;;;;;9.10;99.90;;;;;;4992591;28;19926;-67
2023/04/16 06:58:49;;;;;;;;;;;9.20;99.90;;;;;;4976381;28;20339;-66
2023/04/16 07:01:15;;;;;;;;;;;9.20;99.90;;;;;;4992385;28;19930;-65
2023/04/16 07:03:41;;;;;;;;;;;9.20;99.90;;;;;;4993775;28;20027;-67
2023/04/16 07:06:06;;;;;;;;;;;9.20;99.90;;;;;;4976160;28;19979;-67
2023/04/16 07:08:32;;;;;;;;;;;9.30;99.90;;;;;;4993587;28;20061;-65
2023/04/16 07:10:58;;;;;;;;;;;9.20;99.90;;;;;;4992275;28;19977;-74
2023/04/16 07:13:23;;;;;;;;;;;9.30;99.90;;;;;;4993511;28;20299;-65
2023/04/16 07:15:49;;;;;;;;;;;9.40;99.90;;;;;;4993473;28;19925;-66
2023/04/16 07:18:15;;;;;;;;;;;9.40;99.90;;;;;;4993054;28;19926;-64
2023/04/16 07:20:40;;;;;;;;;;;9.40;99.90;;;;;;4992460;28;20280;-66
2023/04/16 07:23:06;;;;;;;;;;;9.40;99.90;;;;;;4992865;28;19926;-66
2023/04/16 07:25:32;;;;;;;;;;;9.40;99.90;;;;;;4993337;28;19925;-69
2023/04/16 07:27:57;;;;;;;;;;;9.40;99.90;;;;;;4992089;28;19925;-73
2023/04/16 07:30:23;;;;;;;;;;;9.30;99.90;;;;;;4991910;28;19925;-66
2023/04/16 07:32:49;;;;;;;;;;;9.30;99.90;;;;;;4992120;28;19932;-66
2023/04/16 07:35:15;;;;;;;;;;;9.40;99.90;;;;;;4991605;28;19948;-66
2023/04/16 07:37:40;;;;;;;;;;;9.40;99.90;;;;;;4991777;28;19926;-66
2023/04/16 07:40:06;;;;;;;;;;;9.30;99.90;;;;;;4992746;28;19926;-67
2023/04/16 07:42:32;;;;;;;;;;;9.40;99.90;;;;;;4993046;28;19926;-65
2023/04/16 07:44:58;;;;;;;;;;;9.40;99.90;;;;;;4991860;28;20268;-71
2023/04/16 07:47:25;;;;;;;;;;;9.40;99.90;;;;;;4992307;28;20024;-66
2023/04/16 07:49:51;;;;;;;;;;;9.50;99.90;;;;;;4992435;28;20454;-66
2023/04/16 07:52:16;;;;;;;;;;;9.60;99.90;;;;;;4992269;28;20017;-66
2023/04/16 07:54:42;;;;;;;;;;;9.50;99.90;;;;;;4991525;28;20380;-64
2023/04/16 07:57:07;;;;;;;;;;;9.80;99.90;;;;;;4992346;28;19926;-64
2023/04/16 07:59:33;;;;;;;;;;;9.60;99.90;;;;;;4975427;28;19932;-65
2023/04/16 08:01:58;;;;;;;;;;;9.70;99.90;;;;;;4992674;28;19929;-66
2023/04/16 08:04:24;;;;;;;;;;;9.70;99.90;;;;;;4991985;28;19968;-66
2023/04/16 08:06:50;;;;;;;;;;;9.70;99.90;;;;;;4991628;28;20001;-66
2023/04/16 08:09:16;;;;;;;;;;;9.80;99.90;;;;;;4990883;28;20020;-65
2023/04/16 08:11:41;;;;;;;;;;;9.70;99.90;;;;;;4992432;28;20391;-65
2023/04/16 08:14:07;;;;;;;;;;;9.80;99.90;;;;;;4990712;28;19949;-66
2023/04/16 08:16:33;;;;;;;;;;;9.90;99.90;;;;;;4992356;28;20268;-66
2023/04/16 08:18:59;;;;;;;;;;;10.00;99.90;;;;;;4992442;28;19933;-68
2023/04/16 08:21:26;;;;;;;;;;;10.10;99.90;;;;;;4991812;28;19980;-65
2023/04/16 08:23:52;;;;;;;;;;;10.20;99.90;;;;;;4991370;28;20383;-66
2023/04/16 08:26:18;;;;;;;;;;;10.40;99.90;;;;;;4991944;28;19948;-66
2023/04/16 08:28:43;;;;;;;;;;;10.40;99.90;;;;;;4991902;28;19969;-65
2023/04/16 08:31:09;;;;;;;;;;;10.60;99.90;;;;;;4991877;28;19933;-66
2023/04/16 08:33:35;;;;;;;;;;;10.70;99.90;;;;;;4992292;28;20298;-66
2023/04/16 08:36:00;;;;;;;;;;;10.80;99.90;;;;;;4990941;28;19925;-66
2023/04/16 08:38:26;;;;;;;;;;;10.90;99.90;;;;;;4991784;28;20463;-66
2023/04/16 08:40:53;;;;;;;;;;;10.90;99.90;;;;;;4990917;28;19961;-68
2023/04/16 08:43:21;;;;;;;;;;;11.00;99.90;;;;;;4989691;28;20371;-65
2023/04/16 08:45:47;;;;;;;;;;;11.20;99.90;;;;;;4988490;28;19972;-64
2023/04/16 08:48:13;;;;;;;;;;;11.30;99.90;;;;;;4990406;28;19932;-66
2023/04/16 08:50:39;;;;;;;;;;;11.40;99.90;;;;;;4991001;28;19958;-70
2023/04/16 08:53:06;;;;;;;;;;;11.50;99.90;;;;;;4991811;28;20417;-67
2023/04/16 08:55:38;;;;;;;;;;;11.50;99.90;;;;;;4990768;28;20264;-67
2023/04/16 08:58:13;;;;;;;;;;;11.60;99.90;;;;;;4992049;28;19930;-67
2023/04/16 09:00:42;;;;;;;;;;;11.60;99.90;;;;;;4990891;28;19926;-66
2023/04/16 09:03:08;;;;;;;;;;;11.80;99.90;;;;;;4990701;28;19972;-65
2023/04/16 09:05:34;;;;;;;;;;;11.80;99.90;;;;;;4991606;28;19926;-65
2023/04/16 09:08:00;;;;;;;;;;;11.90;99.90;;;;;;4988046;28;19926;-67
2023/04/16 09:10:26;;;;;;;;;;;11.90;99.90;;;;;;4990311;28;19930;-75
2023/04/16 09:12:54;;;;;;;;;;;12.00;99.90;;;;;;4990990;28;19926;-66
2023/04/16 09:15:19;;;;;;;;;;;12.00;99.90;;;;;;4993076;28;20409;-66
2023/04/16 09:17:45;;;;;;;;;;;12.10;99.90;;;;;;4995078;28;19930;-67
2023/04/16 09:20:11;;;;;;;;;;;12.10;99.90;;;;;;4994537;28;19925;-71
2023/04/16 09:22:37;;;;;;;;;;;12.20;99.90;;;;;;4995035;28;19926;-67
2023/04/16 09:25:03;;;;;;;;;;;12.20;99.90;;;;;;4995267;28;19926;-66
2023/04/16 09:27:29;;;;;;;;;;;12.30;99.90;;;;;;4994732;28;19933;-68
2023/04/16 09:29:54;;;;;;;;;;;12.30;99.90;;;;;;4993888;28;19961;-65
2023/04/16 09:32:23;;;;;;;;;;;12.40;99.90;;;;;;4994764;28;20016;-66
2023/04/16 09:34:56;;;;;;;;;;;12.40;99.90;;;;;;4978084;28;19932;-66
2023/04/16 09:37:22;;;;;;;;;;;12.40;99.90;;;;;;4994694;28;19925;-67
2023/04/16 09:39:52;;;;;;;;;;;12.40;99.90;;;;;;4993637;28;19925;-69
2023/04/16 09:42:26;;;;;;;;;;;12.40;99.90;;;;;;4993056;28;20347;-67
2023/04/16 09:44:51;;;;;;;;;;;12.50;99.90;;;;;;4994993;28;20336;-66
2023/04/16 09:47:17;;;;;;;;;;;12.50;99.90;;;;;;4993369;28;19988;-72
2023/04/16 09:49:43;;;;;;;;;;;12.50;99.90;;;;;;4994654;28;19977;-67
2023/04/16 09:52:17;;;;;;;;;;;12.50;99.90;;;;;;4994730;28;19932;-66
2023/04/16 09:54:45;;;;;;;;;;;12.50;99.90;;;;;;4993664;28;19984;-68
2023/04/16 09:57:11;;;;;;;;;;;12.50;99.90;;;;;;4991200;28;19933;-65
2023/04/16 09:59:37;;;;;;;;;;;12.50;99.90;;;;;;4993025;28;19922;-65
2023/04/16 10:02:02;;;;;;;;;;;12.70;99.90;;;;;;4993175;28;20012;-65
2023/04/16 10:04:28;;;;;;;;;;;12.80;99.90;;;;;;4976788;28;19926;-65
2023/04/16 10:07:03;;;;;;;;;;;12.90;99.90;;;;;;4992661;28;19996;-67
2023/04/16 10:09:36;;;;;;;;;;;12.90;99.90;;;;;;4986095;28;19925;-64
2023/04/16 10:12:02;;;;;;;;;;;12.90;99.90;;;;;;4991509;28;19933;-66
2023/04/16 10:14:27;;;;;;;;;;;13.00;99.90;;;;;;4990423;28;19926;-65
2023/04/16 10:16:54;;;;;;;;;;;13.10;99.90;;;;;;4989062;28;19932;-66
2023/04/16 10:19:20;;;;;;;;;;;13.20;99.90;;;;;;4974039;28;19992;-70
2023/04/16 10:21:46;;;;;;;;;;;13.20;99.90;;;;;;4994249;28;20343;-67
2023/04/16 10:24:12;;;;;;;;;;;13.20;99.90;;;;;;4993926;28;20390;-65
2023/04/16 10:26:39;;;;;;;;;;;13.20;99.90;;;;;;4992116;28;19926;-66
2023/04/16 10:29:05;;;;;;;;;;;13.20;99.90;;;;;;4991916;28;20040;-64
2023/04/16 10:31:31;;;;;;;;;;;13.20;99.90;;;;;;4991851;28;20395;-65
2023/04/16 10:33:57;;;;;;;;;;;13.30;99.90;;;;;;4992741;28;19933;-64
2023/04/16 10:36:23;;;;;;;;;;;13.40;99.90;;;;;;4992341;28;20009;-65
2023/04/16 10:38:51;;;;;;;;;;;13.40;99.90;;;;;;4974361;28;20116;-66
2023/04/16 10:41:19;;;;;;;;;;;13.40;99.90;;;;;;4990796;28;19969;-65
2023/04/16 10:43:46;;;;;;;;;;;13.50;99.90;;;;;;4991743;28;20029;-68
2023/04/16 10:46:28;;;;;;;;;;;13.50;99.90;;;;;;4991795;28;19930;-66
2023/04/16 10:48:54;;;;;;;;;;;13.60;99.90;;;;;;4993418;28;20268;-66
2023/04/16 10:51:31;;;;;;;;;;;13.60;99.90;;;;;;4992245;28;19926;-65
2023/04/16 10:54:01;;;;;;;;;;;13.70;99.90;;;;;;4992773;28;19984;-65
2023/04/16 10:56:26;;;;;;;;;;;13.50;99.90;;;;;;4992897;28;20354;-66
2023/04/16 10:58:58;;;;;;;;;;;13.50;99.90;;;;;;4992419;28;19948;-67
2023/04/16 11:01:31;;;;;;;;;;;13.50;99.90;;;;;;4993181;28;19929;-73
2023/04/16 11:04:01;;;;;;;;;;;13.50;99.90;;;;;;4993679;28;19932;-67
2023/04/16 11:06:27;;;;;;;;;;;13.60;99.90;;;;;;4993384;28;20020;-66
2023/04/16 11:08:52;;;;;;;;;;;13.50;99.90;;;;;;4975999;28;19926;-66
2023/04/16 11:11:18;;;;;;;;;;;13.50;99.90;;;;;;4991608;28;20004;-68
2023/04/16 11:13:47;;;;;;;;;;;13.40;99.90;;;;;;4989686;28;19993;-65
2023/04/16 11:16:13;;;;;;;;;;;13.30;99.90;;;;;;4989881;28;19933;-66
2023/04/16 11:18:39;;;;;;;;;;;13.30;99.90;;;;;;4986685;28;20382;-65
2023/04/16 11:21:09;;;;;;;;;;;13.20;99.90;;;;;;4991256;28;19929;-67
2023/04/16 11:23:45;;;;;;;;;;;13.40;99.90;;;;;;4988245;28;19976;-65
2023/04/16 11:26:27;;;;;;;;;;;13.50;99.90;;;;;;4993235;28;19926;-67
2023/04/16 11:28:54;;;;;;;;;;;13.50;99.90;;;;;;4991826;28;19926;-65
2023/04/16 11:31:20;;;;;;;;;;;13.60;99.90;;;;;;4993093;28;20021;-68
2023/04/16 11:33:45;;;;;;;;;;;13.70;99.90;;;;;;4992439;28;20004;-67
2023/04/16 11:36:11;;;;;;;;;;;13.70;99.90;;;;;;4991880;28;19933;-65
2023/04/16 11:38:37;;;;;;;;;;;13.70;99.90;;;;;;4992379;28;19926;-66
2023/04/16 11:41:03;;;;;;;;;;;13.90;99.90;;;;;;4992970;28;19925;-66
2023/04/16 11:43:28;;;;;;;;;;;13.70;99.90;;;;;;4971056;28;20391;-70
2023/04/16 11:46:01;;;;;;;;;;;13.70;99.90;;;;;;4991221;28;19925;-63
2023/04/16 11:48:49;;;;;;;;;;;13.60;99.90;;;;;;4992391;28;19930;-65
2023/04/16 11:51:15;;;;;;;;;;;13.60;99.90;;;;;;4992598;28;19929;-63
2023/04/16 11:53:45;;;;;;;;;;;13.50;99.90;;;;;;4992554;28;19926;-64
2023/04/16 11:56:10;;;;;;;;;;;13.60;99.90;;;;;;4990637;28;20524;-66
2023/04/16 11:58:36;;;;;;;;;;;13.30;99.90;;;;;;4990855;28;19926;-65
2023/04/16 12:01:02;;;;;;;;;;;13.60;99.90;;;;;;4992447;28;20268;-63
2023/04/16 12:03:44;;;;;;;;;;;13.60;99.90;;;;;;4975399;28;19933;-64
2023/04/16 12:06:10;;;;;;;;;;;13.70;99.90;;;;;;4992713;28;19987;-63
2023/04/16 12:08:35;;;;;;;;;;;13.70;99.90;;;;;;4990984;28;19930;-64
2023/04/16 12:11:01;;;;;;;;;;;13.70;99.90;;;;;;4959106;28;19926;-63
2023/04/16 12:13:27;;;;;;;;;;;13.70;99.90;;;;;;4992385;28;19932;-65
2023/04/16 12:15:53;;;;;;;;;;;13.70;99.90;;;;;;4990749;28;19925;-63
2023/04/16 12:18:21;;;;;;;;;;;13.70;99.90;;;;;;4992651;28;19926;-63
2023/04/16 12:20:46;;;;;;;;;;;13.70;99.90;;;;;;4992189;28;19933;-64
2023/04/16 12:23:26;;;;;;;;;;;13.70;99.90;;;;;;4991563;28;19926;-63
2023/04/16 12:25:51;;;;;;;;;;;13.60;99.90;;;;;;4991592;28;19930;-64
2023/04/16 12:28:27;;;;;;;;;;;13.50;99.90;;;;;;4991143;28;19932;-64
2023/04/16 12:30:53;;;;;;;;;;;13.60;99.90;;;;;;4991138;28;19930;-66
2023/04/16 12:33:20;;;;;;;;;;;13.70;99.90;;;;;;4992089;28;20025;-63
2023/04/16 12:35:45;;;;;;;;;;;13.70;99.90;;;;;;4991201;28;20034;-65
2023/04/16 12:38:12;;;;;;;;;;;13.80;99.90;;;;;;4992652;28;19926;-65
2023/04/16 12:40:38;;;;;;;;;;;13.90;99.90;;;;;;4991134;28;19991;-65
2023/04/16 12:43:04;;;;;;;;;;;13.90;99.90;;;;;;4975128;28;20371;-65
2023/04/16 12:45:30;;;;;;;;;;;13.90;99.90;;;;;;4992343;28;19933;-65
2023/04/16 12:47:56;;;;;;;;;;;14.00;99.90;;;;;;4991214;28;19983;-66
2023/04/16 12:50:21;;;;;;;;;;;14.10;99.90;;;;;;4989427;28;19929;-68
2023/04/16 12:52:47;;;;;;;;;;;14.10;99.90;;;;;;4993822;28;19926;-66
2023/04/16 12:55:13;;;;;;;;;;;14.00;99.90;;;;;;4996067;28;19926;-65
2023/04/16 12:57:39;;;;;;;;;;;13.90;99.90;;;;;;4994860;28;20028;-67
2023/04/16 13:00:05;;;;;;;;;;;13.80;99.90;;;;;;4995204;28;20205;-66
2023/04/16 13:02:31;;;;;;;;;;;13.70;99.90;;;;;;4994431;28;19930;-66
2023/04/16 13:04:57;;;;;;;;;;;13.70;99.90;;;;;;4992727;28;20421;-65
2023/04/16 13:07:23;;;;;;;;;;;13.60;99.90;;;;;;4995739;28;19926;-65
2023/04/16 13:09:49;;;;;;;;;;;13.60;99.90;;;;;;4994776;28;20140;-64
2023/04/16 13:12:14;;;;;;;;;;;13.20;99.90;;;;;;4995014;28;20142;-65
2023/04/16 13:14:40;;;;;;;;;;;13.70;99.90;;;;;;4994598;28;19926;-67
2023/04/16 13:17:06;;;;;;;;;;;13.60;99.90;;;;;;4995475;28;19926;-66
2023/04/16 13:19:31;;;;;;;;;;;13.60;99.90;;;;;;4994713;28;19932;-66
2023/04/16 13:21:58;;;;;;;;;;;13.70;99.90;;;;;;4995428;28;20398;-65
2023/04/16 13:24:24;;;;;;;;;;;13.70;99.90;;;;;;4994387;28;20354;-65
2023/04/16 13:26:53;;;;;;;;;;;13.60;99.90;;;;;;4995135;28;19926;-64
2023/04/16 13:29:19;;;;;;;;;;;13.60;99.90;;;;;;4995479;28;19932;-65
2023/04/16 13:31:45;;;;;;;;;;;13.60;99.90;;;;;;4977910;28;20282;-64
2023/04/16 13:34:11;;;;;;;;;;;13.60;99.90;;;;;;4993708;28;20387;-65
2023/04/16 13:36:36;;;;;;;;;;;13.70;99.90;;;;;;4993995;28;19926;-66
2023/04/16 13:39:09;;;;;;;;;;;13.70;99.90;;;;;;4992675;28;19932;-67
2023/04/16 13:41:35;;;;;;;;;;;13.70;99.90;;;;;;4994184;28;20084;-66
2023/04/16 13:44:01;;;;;;;;;;;13.70;99.90;;;;;;4992524;28;19996;-64
2023/04/16 13:46:27;;;;;;;;;;;13.80;99.90;;;;;;4992798;28;19951;-64
2023/04/16 13:48:53;;;;;;;;;;;13.80;99.90;;;;;;4993388;28;19945;-64
2023/04/16 13:51:19;;;;;;;;;;;13.80;99.90;;;;;;4994088;28;19999;-66
2023/04/16 13:53:44;;;;;;;;;;;13.80;99.90;;;;;;4991962;28;20352;-72
2023/04/16 13:56:10;;;;;;;;;;;13.80;99.90;;;;;;4993727;28;19980;-66
2023/04/16 13:58:36;;;;;;;;;;;13.80;99.90;;;;;;4993691;28;20458;-66
2023/04/16 14:01:02;;;;;;;;;;;13.90;99.90;;;;;;4993237;28;19972;-66
2023/04/16 14:03:28;;;;;;;;;;;13.90;99.90;;;;;;4976587;28;19926;-65
2023/04/16 14:05:53;;;;;;;;;;;13.90;99.90;;;;;;4992086;28;20013;-65
2023/04/16 14:08:20;;;;;;;;;;;13.90;99.90;;;;;;4993524;28;19973;-67
2023/04/16 14:10:48;;;;;;;;;;;13.90;99.90;;;;;;4975010;28;19980;-72
2023/04/16 14:13:14;;;;;;;;;;;13.80;99.90;;;;;;4992587;28;19929;-66
2023/04/16 14:15:39;;;;;;;;;;;13.80;99.90;;;;;;4992687;28;20458;-65
2023/04/16 14:18:05;;;;;;;;;;;13.90;99.90;;;;;;4993059;28;19957;-68